PWSweather.com
Personal Weather Stations
Station Observations
ONALIVA
Vilanova I La GeltruES 08800

Vilanova I La GeltruES 08800

Lat: 41.22347, Lon: 1.72726

Elevation: 47

Station Type: W-8681

Latest ConditionsUpdated 3:01:00 AM GMT+01:01 Monday, Jun 18, 2018
Currently Today's Max Today's Min Today's Average
Temperature 65.5°F18.6°C 67.8°F19.9°C 65.5°F18.6°C 66.6°F19.2°C
Dew Point 55.8°F13.2°C 56.5°F13.6°C 55.1°F12.8°C 55.7°F13.2°C
Winds 0.7 mph NW1.1 kmh NW 4.5 mph -7.2 kmh - - 1.5 mph 2.4 kmh
Wind Gusts 1.6 mph2.6 kmh 6.9 mph11.1 kmh - -
Humidity 71% 71% 65% 68%
Pressure 29.99 in1015.6 mb 30.00 in1015.9 mb 29.98 in1015.2 mb -
Hour Temp Dew Point Humidity Winds Wind Gusts Pressure Precip Precip Rate Daily Precip Total
03:01 AM 65.5°F18.6°C 55.8°F13.2°C 71% 0.7 mph NW1.1 kmh NW 1.6 mph2.6 kmh 29.99 in1015.6 mb 0.00 in0.0 mm 0.00 in0.0 mm 0.00 in0.0 mm
02:56 AM 65.7°F18.7°C 56.0°F13.3°C 71% 2.2 mph 3.5 kmh 3.8 mph6.1 kmh 29.99 in1015.6 mb 0.00 in0.0 mm 0.00 in0.0 mm 0.00 in0.0 mm
02:51 AM 65.5°F18.6°C 55.4°F13.0°C 70% 0.7 mph E1.1 kmh E 2.2 mph3.5 kmh 29.99 in1015.6 mb 0.00 in0.0 mm 0.00 in0.0 mm 0.00 in0.0 mm
02:46 AM 65.5°F18.6°C 55.4°F13.0°C 70% 1.6 mph E2.6 kmh E 3.1 mph5.0 kmh 29.99 in1015.6 mb 0.00 in0.0 mm 0.00 in0.0 mm 0.00 in0.0 mm
02:41 AM 65.7°F18.7°C 55.6°F13.1°C 70% 2.2 mph ENE3.5 kmh ENE 4.5 mph7.2 kmh 29.99 in1015.6 mb 0.00 in0.0 mm 0.00 in0.0 mm 0.00 in0.0 mm
02:36 AM 65.8°F18.8°C 55.8°F13.2°C 70% 1.6 mph E2.6 kmh E 3.1 mph5.0 kmh 29.98 in1015.2 mb 0.00 in0.0 mm 0.00 in0.0 mm 0.00 in0.0 mm
02:31 AM 66.0°F18.9°C 55.5°F13.1°C 69% 1.6 mph E2.6 kmh E 3.1 mph5.0 kmh 29.99 in1015.6 mb 0.00 in0.0 mm 0.00 in0.0 mm 0.00 in0.0 mm
02:26 AM 66.0°F18.9°C 55.9°F13.3°C 70% 0.7 mph NW1.1 kmh NW 2.2 mph3.5 kmh 29.99 in1015.6 mb 0.00 in0.0 mm 0.00 in0.0 mm 0.00 in0.0 mm
02:21 AM 66.0°F18.9°C 55.5°F13.1°C 69% 0.7 mph E1.1 kmh E 2.2 mph3.5 kmh 29.99 in1015.6 mb 0.00 in0.0 mm 0.00 in0.0 mm 0.00 in0.0 mm
02:16 AM 66.0°F18.9°C 55.5°F13.1°C 69% Calm Calm 1.6 mph2.6 kmh 29.99 in1015.6 mb 0.00 in0.0 mm 0.00 in0.0 mm 0.00 in0.0 mm
02:11 AM 66.4°F19.1°C 55.5°F13.1°C 68% 1.6 mph E2.6 kmh E 3.1 mph5.0 kmh 29.99 in1015.6 mb 0.00 in0.0 mm 0.00 in0.0 mm 0.00 in0.0 mm
02:06 AM 66.4°F19.1°C 55.1°F12.8°C 67% 2.2 mph E3.5 kmh E 3.1 mph5.0 kmh 29.99 in1015.6 mb 0.00 in0.0 mm 0.00 in0.0 mm 0.00 in0.0 mm
02:01 AM 66.4°F19.1°C 55.1°F12.8°C 67% 2.2 mph E3.5 kmh E 3.1 mph5.0 kmh 29.99 in1015.6 mb 0.00 in0.0 mm 0.00 in0.0 mm 0.00 in0.0 mm
01:56 AM 66.6°F19.2°C 55.3°F12.9°C 67% 0.7 mph E1.1 kmh E 2.2 mph3.5 kmh 29.99 in1015.6 mb 0.00 in0.0 mm 0.00 in0.0 mm 0.00 in0.0 mm
01:51 AM 66.6°F19.2°C 55.3°F12.9°C 67% 0.7 mph NW1.1 kmh NW 3.1 mph5.0 kmh 29.99 in1015.6 mb 0.00 in0.0 mm 0.00 in0.0 mm 0.00 in0.0 mm
01:46 AM 66.6°F19.2°C 55.3°F12.9°C 67% 1.6 mph E2.6 kmh E 2.2 mph3.5 kmh 29.99 in1015.6 mb 0.00 in0.0 mm 0.00 in0.0 mm 0.00 in0.0 mm
01:41 AM 66.4°F19.1°C 55.1°F12.8°C 67% 0.7 mph NW1.1 kmh NW 1.6 mph2.6 kmh 29.99 in1015.6 mb 0.00 in0.0 mm 0.00 in0.0 mm 0.00 in0.0 mm
01:36 AM 66.4°F19.1°C 55.5°F13.1°C 68% 0.7 mph E1.1 kmh E 2.2 mph3.5 kmh 29.99 in1015.6 mb 0.00 in0.0 mm 0.00 in0.0 mm 0.00 in0.0 mm
01:31 AM 66.2°F19.0°C 55.3°F12.9°C 68% 1.6 mph NNW2.6 kmh NNW 3.1 mph5.0 kmh 29.99 in1015.6 mb 0.00 in0.0 mm 0.00 in0.0 mm 0.00 in0.0 mm
01:26 AM 66.4°F19.1°C 55.5°F13.1°C 68% 1.6 mph E2.6 kmh E 2.2 mph3.5 kmh 29.99 in1015.6 mb 0.00 in0.0 mm 0.00 in0.0 mm 0.00 in0.0 mm
01:21 AM 66.4°F19.1°C 55.5°F13.1°C 68% 0.7 mph E1.1 kmh E 3.1 mph5.0 kmh 29.99 in1015.6 mb 0.00 in0.0 mm 0.00 in0.0 mm 0.00 in0.0 mm
01:16 AM 66.4°F19.1°C 55.5°F13.1°C 68% 2.2 mph NE3.5 kmh NE 3.8 mph6.1 kmh 29.99 in1015.6 mb 0.00 in0.0 mm 0.00 in0.0 mm 0.00 in0.0 mm
01:11 AM 66.4°F19.1°C 55.5°F13.1°C 68% 2.2 mph E3.5 kmh E 4.5 mph7.2 kmh 29.99 in1015.6 mb 0.00 in0.0 mm 0.00 in0.0 mm 0.00 in0.0 mm
01:06 AM 66.6°F19.2°C 55.7°F13.2°C 68% 2.2 mph NE3.5 kmh NE 3.8 mph6.1 kmh 29.99 in1015.6 mb 0.00 in0.0 mm 0.00 in0.0 mm 0.00 in0.0 mm
01:01 AM 66.6°F19.2°C 55.7°F13.2°C 68% 2.2 mph NE3.5 kmh NE 3.8 mph6.1 kmh 29.99 in1015.6 mb 0.00 in0.0 mm 0.00 in0.0 mm 0.00 in0.0 mm
12:56 AM 66.6°F19.2°C 56.1°F13.4°C 69% 0.7 mph E1.1 kmh E 2.2 mph3.5 kmh 29.99 in1015.6 mb 0.00 in0.0 mm 0.00 in0.0 mm 0.00 in0.0 mm
12:51 AM 66.6°F19.2°C 56.1°F13.4°C 69% 1.6 mph 2.6 kmh 3.8 mph6.1 kmh 29.99 in1015.6 mb 0.00 in0.0 mm 0.00 in0.0 mm 0.00 in0.0 mm
12:46 AM 66.9°F19.4°C 56.4°F13.6°C 69% 3.1 mph E5.0 kmh E 4.5 mph7.2 kmh 29.99 in1015.6 mb 0.00 in0.0 mm 0.00 in0.0 mm 0.00 in0.0 mm
12:41 AM 67.1°F19.5°C 56.2°F13.4°C 68% 1.6 mph E2.6 kmh E 3.8 mph6.1 kmh 29.99 in1015.6 mb 0.00 in0.0 mm 0.00 in0.0 mm 0.00 in0.0 mm
12:36 AM 67.3°F19.6°C 56.3°F13.5°C 68% 3.1 mph E5.0 kmh E 6.9 mph11.1 kmh 29.99 in1015.6 mb 0.00 in0.0 mm 0.00 in0.0 mm 0.00 in0.0 mm
12:31 AM 67.5°F19.7°C 56.5°F13.6°C 68% 4.5 mph E7.2 kmh E 6.0 mph9.7 kmh 29.99 in1015.6 mb 0.00 in0.0 mm 0.00 in0.0 mm 0.00 in0.0 mm
12:26 AM 67.8°F19.9°C 56.0°F13.3°C 66% 2.2 mph NE3.5 kmh NE 3.8 mph6.1 kmh 29.99 in1015.6 mb 0.00 in0.0 mm 0.00 in0.0 mm 0.00 in0.0 mm
12:21 AM 67.8°F19.9°C 55.6°F13.1°C 65% 0.7 mph E1.1 kmh E 1.6 mph2.6 kmh 29.99 in1015.6 mb 0.00 in0.0 mm 0.00 in0.0 mm 0.00 in0.0 mm
12:16 AM 67.8°F19.9°C 56.0°F13.3°C 66% 1.6 mph NW2.6 kmh NW 3.1 mph5.0 kmh 30.00 in1015.9 mb 0.00 in0.0 mm 0.00 in0.0 mm 0.00 in0.0 mm
12:11 AM 67.8°F19.9°C 56.0°F13.3°C 66% 2.2 mph 3.5 kmh 3.8 mph6.1 kmh 29.99 in1015.6 mb 0.00 in0.0 mm 0.00 in0.0 mm 0.00 in0.0 mm
12:06 AM 67.5°F19.7°C 55.7°F13.2°C 66% Calm Calm 1.6 mph2.6 kmh 30.00 in1015.9 mb 0.00 in0.0 mm 0.00 in0.0 mm 0.00 in0.0 mm
12:01 AM 67.5°F19.7°C 55.7°F13.2°C 66% Calm Calm 1.6 mph2.6 kmh 30.00 in1015.9 mb 0.00 in0.0 mm 0.00 in0.0 mm 0.00 in0.0 mm